sensor_id;sensor_type;location;lat;lon;timestamp;temperature;humidity
3262;DHT22;1643;47.746;9.000;2022-08-21T00:01:42;18.40;99.90
3262;DHT22;1643;47.746;9.000;2022-08-21T00:04:09;18.30;99.90
3262;DHT22;1643;47.746;9.000;2022-08-21T00:06:36;18.30;99.90
3262;DHT22;1643;47.746;9.000;2022-08-21T00:09:04;18.30;99.90
3262;DHT22;1643;47.746;9.000;2022-08-21T00:11:30;18.20;99.90
3262;DHT22;1643;47.746;9.000;2022-08-21T00:13:55;18.20;99.90
3262;DHT22;1643;47.746;9.000;2022-08-21T00:16:21;18.20;99.90
3262;DHT22;1643;47.746;9.000;2022-08-21T00:18:47;18.20;99.90
3262;DHT22;1643;47.746;9.000;2022-08-21T00:21:14;18.20;99.90
3262;DHT22;1643;47.746;9.000;2022-08-21T00:23:40;18.10;99.90
3262;DHT22;1643;47.746;9.000;2022-08-21T00:26:06;18.10;99.90
3262;DHT22;1643;47.746;9.000;2022-08-21T00:28:32;18.10;99.90
3262;DHT22;1643;47.746;9.000;2022-08-21T00:30:58;18.10;99.90
3262;DHT22;1643;47.746;9.000;2022-08-21T00:33:24;18.10;99.90
3262;DHT22;1643;47.746;9.000;2022-08-21T00:35:50;18.10;99.90
3262;DHT22;1643;47.746;9.000;2022-08-21T00:38:16;18.10;99.90
3262;DHT22;1643;47.746;9.000;2022-08-21T00:40:49;18.10;99.90
3262;DHT22;1643;47.746;9.000;2022-08-21T00:43:19;18.10;99.90
3262;DHT22;1643;47.746;9.000;2022-08-21T00:45:45;18.00;99.90
3262;DHT22;1643;47.746;9.000;2022-08-21T00:48:11;18.00;99.90
3262;DHT22;1643;47.746;9.000;2022-08-21T00:50:43;18.00;99.90
3262;DHT22;1643;47.746;9.000;2022-08-21T00:53:10;18.00;99.90
3262;DHT22;1643;47.746;9.000;2022-08-21T00:55:37;17.90;99.90
3262;DHT22;1643;47.746;9.000;2022-08-21T00:58:05;17.90;99.90
3262;DHT22;1643;47.746;9.000;2022-08-21T01:00:35;17.90;99.90
3262;DHT22;1643;47.746;9.000;2022-08-21T01:03:07;17.90;99.90
3262;DHT22;1643;47.746;9.000;2022-08-21T01:05:33;17.90;99.90
3262;DHT22;1643;47.746;9.000;2022-08-21T01:07:59;17.90;99.90
3262;DHT22;1643;47.746;9.000;2022-08-21T01:10:25;17.80;99.90
3262;DHT22;1643;47.746;9.000;2022-08-21T01:12:54;17.70;99.90
3262;DHT22;1643;47.746;9.000;2022-08-21T01:15:23;17.70;99.90
3262;DHT22;1643;47.746;9.000;2022-08-21T01:17:50;17.70;99.90
3262;DHT22;1643;47.746;9.000;2022-08-21T01:20:16;17.60;99.90
3262;DHT22;1643;47.746;9.000;2022-08-21T01:22:42;17.60;99.90
3262;DHT22;1643;47.746;9.000;2022-08-21T01:25:09;17.60;99.90
3262;DHT22;1643;47.746;9.000;2022-08-21T01:27:35;17.60;99.90
3262;DHT22;1643;47.746;9.000;2022-08-21T01:30:09;17.50;99.90
3262;DHT22;1643;47.746;9.000;2022-08-21T01:32:36;17.50;99.90
3262;DHT22;1643;47.746;9.000;2022-08-21T01:35:02;17.40;99.90
3262;DHT22;1643;47.746;9.000;2022-08-21T01:37:28;17.30;99.90
3262;DHT22;1643;47.746;9.000;2022-08-21T01:39:53;17.20;99.90
3262;DHT22;1643;47.746;9.000;2022-08-21T01:42:19;17.20;99.90
3262;DHT22;1643;47.746;9.000;2022-08-21T01:44:45;17.30;99.90
3262;DHT22;1643;47.746;9.000;2022-08-21T01:47:13;17.30;99.90
3262;DHT22;1643;47.746;9.000;2022-08-21T01:49:39;17.40;99.90
3262;DHT22;1643;47.746;9.000;2022-08-21T01:52:06;17.40;99.90
3262;DHT22;1643;47.746;9.000;2022-08-21T01:54:32;17.50;99.90
3262;DHT22;1643;47.746;9.000;2022-08-21T01:56:58;17.50;99.90
3262;DHT22;1643;47.746;9.000;2022-08-21T01:59:24;17.40;99.90
3262;DHT22;1643;47.746;9.000;2022-08-21T02:01:50;17.40;99.90
3262;DHT22;1643;47.746;9.000;2022-08-21T02:04:16;17.30;99.90
3262;DHT22;1643;47.746;9.000;2022-08-21T02:06:42;17.40;99.90
3262;DHT22;1643;47.746;9.000;2022-08-21T02:09:09;17.40;99.90
3262;DHT22;1643;47.746;9.000;2022-08-21T02:11:36;17.30;99.90
3262;DHT22;1643;47.746;9.000;2022-08-21T02:14:14;17.30;99.90
3262;DHT22;1643;47.746;9.000;2022-08-21T02:16:42;17.20;99.90
3262;DHT22;1643;47.746;9.000;2022-08-21T02:19:09;17.20;99.90
3262;DHT22;1643;47.746;9.000;2022-08-21T02:21:34;17.20;99.90
3262;DHT22;1643;47.746;9.000;2022-08-21T02:24:00;17.30;99.90
3262;DHT22;1643;47.746;9.000;2022-08-21T02:26:26;17.30;99.90
3262;DHT22;1643;47.746;9.000;2022-08-21T02:28:52;17.40;99.90
3262;DHT22;1643;47.746;9.000;2022-08-21T02:31:18;17.40;99.90
3262;DHT22;1643;47.746;9.000;2022-08-21T02:33:44;17.50;99.90
3262;DHT22;1643;47.746;9.000;2022-08-21T02:36:11;17.50;99.90
3262;DHT22;1643;47.746;9.000;2022-08-21T02:38:38;17.50;99.90
3262;DHT22;1643;47.746;9.000;2022-08-21T02:41:14;17.50;99.90
3262;DHT22;1643;47.746;9.000;2022-08-21T02:43:40;17.60;99.90
3262;DHT22;1643;47.746;9.000;2022-08-21T02:46:06;17.60;99.90
3262;DHT22;1643;47.746;9.000;2022-08-21T02:48:33;17.50;99.90
3262;DHT22;1643;47.746;9.000;2022-08-21T02:51:06;17.40;99.90
3262;DHT22;1643;47.746;9.000;2022-08-21T02:53:34;17.40;99.90
3262;DHT22;1643;47.746;9.000;2022-08-21T02:56:03;17.30;99.90
3262;DHT22;1643;47.746;9.000;2022-08-21T02:58:36;17.30;99.90
3262;DHT22;1643;47.746;9.000;2022-08-21T03:01:03;17.20;99.90
3262;DHT22;1643;47.746;9.000;2022-08-21T03:03:29;17.30;99.90
3262;DHT22;1643;47.746;9.000;2022-08-21T03:05:55;17.30;99.90
3262;DHT22;1643;47.746;9.000;2022-08-21T03:08:22;17.30;99.90
3262;DHT22;1643;47.746;9.000;2022-08-21T03:10:49;17.20;99.90
3262;DHT22;1643;47.746;9.000;2022-08-21T03:13:17;17.10;99.90
3262;DHT22;1643;47.746;9.000;2022-08-21T03:15:43;17.10;99.90
3262;DHT22;1643;47.746;9.000;2022-08-21T03:18:10;17.10;99.90
3262;DHT22;1643;47.746;9.000;2022-08-21T03:20:37;17.10;99.90
3262;DHT22;1643;47.746;9.000;2022-08-21T03:23:05;17.10;99.90
3262;DHT22;1643;47.746;9.000;2022-08-21T03:25:31;17.20;99.90
3262;DHT22;1643;47.746;9.000;2022-08-21T03:27:58;17.20;99.90
3262;DHT22;1643;47.746;9.000;2022-08-21T03:30:24;17.40;99.90
3262;DHT22;1643;47.746;9.000;2022-08-21T03:32:50;17.40;99.90
3262;DHT22;1643;47.746;9.000;2022-08-21T03:35:17;17.50;99.90
3262;DHT22;1643;47.746;9.000;2022-08-21T03:37:43;17.50;99.90
3262;DHT22;1643;47.746;9.000;2022-08-21T03:40:11;17.50;99.90
3262;DHT22;1643;47.746;9.000;2022-08-21T03:42:37;17.50;99.90
3262;DHT22;1643;47.746;9.000;2022-08-21T03:45:03;17.60;99.90
3262;DHT22;1643;47.746;9.000;2022-08-21T03:47:29;17.60;99.90
3262;DHT22;1643;47.746;9.000;2022-08-21T03:49:55;17.60;99.90
3262;DHT22;1643;47.746;9.000;2022-08-21T03:52:21;17.60;99.90
3262;DHT22;1643;47.746;9.000;2022-08-21T03:54:46;17.60;99.90
3262;DHT22;1643;47.746;9.000;2022-08-21T03:57:13;17.60;99.90
3262;DHT22;1643;47.746;9.000;2022-08-21T03:59:38;17.60;99.90
3262;DHT22;1643;47.746;9.000;2022-08-21T04:02:06;17.70;99.90
3262;DHT22;1643;47.746;9.000;2022-08-21T04:04:32;17.70;99.90
3262;DHT22;1643;47.746;9.000;2022-08-21T04:06:58;17.70;99.90
3262;DHT22;1643;47.746;9.000;2022-08-21T04:09:25;17.70;99.90
3262;DHT22;1643;47.746;9.000;2022-08-21T04:11:51;17.70;99.90
3262;DHT22;1643;47.746;9.000;2022-08-21T04:14:18;17.80;99.90
3262;DHT22;1643;47.746;9.000;2022-08-21T04:16:44;17.70;99.90
3262;DHT22;1643;47.746;9.000;2022-08-21T04:19:10;17.80;99.90
3262;DHT22;1643;47.746;9.000;2022-08-21T04:21:37;17.80;99.90
3262;DHT22;1643;47.746;9.000;2022-08-21T04:24:04;17.80;99.90
3262;DHT22;1643;47.746;9.000;2022-08-21T04:26:30;17.80;99.90
3262;DHT22;1643;47.746;9.000;2022-08-21T04:28:57;17.80;99.90
3262;DHT22;1643;47.746;9.000;2022-08-21T04:31:23;17.80;99.90
3262;DHT22;1643;47.746;9.000;2022-08-21T04:33:49;17.80;99.90
3262;DHT22;1643;47.746;9.000;2022-08-21T04:36:16;17.80;99.90
3262;DHT22;1643;47.746;9.000;2022-08-21T04:38:42;17.80;99.90
3262;DHT22;1643;47.746;9.000;2022-08-21T04:41:08;17.80;99.90
3262;DHT22;1643;47.746;9.000;2022-08-21T04:43:34;17.80;99.90
3262;DHT22;1643;47.746;9.000;2022-08-21T04:46:00;17.80;99.90
3262;DHT22;1643;47.746;9.000;2022-08-21T04:48:26;17.70;99.90
3262;DHT22;1643;47.746;9.000;2022-08-21T04:53:26;17.70;99.90
3262;DHT22;1643;47.746;9.000;2022-08-21T04:55:54;17.70;99.90
3262;DHT22;1643;47.746;9.000;2022-08-21T04:58:21;17.60;99.90
3262;DHT22;1643;47.746;9.000;2022-08-21T05:00:48;17.60;99.90
3262;DHT22;1643;47.746;9.000;2022-08-21T05:03:14;17.60;99.90
3262;DHT22;1643;47.746;9.000;2022-08-21T05:05:42;17.60;99.90
3262;DHT22;1643;47.746;9.000;2022-08-21T05:08:11;17.60;99.90
3262;DHT22;1643;47.746;9.000;2022-08-21T05:10:37;17.70;99.90
3262;DHT22;1643;47.746;9.000;2022-08-21T05:13:05;17.80;99.90
3262;DHT22;1643;47.746;9.000;2022-08-21T05:15:31;17.80;99.90
3262;DHT22;1643;47.746;9.000;2022-08-21T05:17:57;17.80;99.90
3262;DHT22;1643;47.746;9.000;2022-08-21T05:20:23;17.80;99.90
3262;DHT22;1643;47.746;9.000;2022-08-21T05:22:48;17.80;99.90
3262;DHT22;1643;47.746;9.000;2022-08-21T05:25:14;17.70;99.90
3262;DHT22;1643;47.746;9.000;2022-08-21T05:27:40;17.70;99.90
3262;DHT22;1643;47.746;9.000;2022-08-21T05:30:07;17.70;99.90
3262;DHT22;1643;47.746;9.000;2022-08-21T05:32:33;17.60;99.90
3262;DHT22;1643;47.746;9.000;2022-08-21T05:34:59;17.60;99.90
3262;DHT22;1643;47.746;9.000;2022-08-21T05:37:25;17.60;99.90
3262;DHT22;1643;47.746;9.000;2022-08-21T05:39:50;17.60;99.90
3262;DHT22;1643;47.746;9.000;2022-08-21T05:42:16;17.60;99.90
3262;DHT22;1643;47.746;9.000;2022-08-21T05:44:42;17.60;99.90
3262;DHT22;1643;47.746;9.000;2022-08-21T05:47:10;17.50;99.90
3262;DHT22;1643;47.746;9.000;2022-08-21T05:49:36;17.60;99.90
3262;DHT22;1643;47.746;9.000;2022-08-21T05:52:03;17.60;99.90
3262;DHT22;1643;47.746;9.000;2022-08-21T05:54:29;17.60;99.90
3262;DHT22;1643;47.746;9.000;2022-08-21T05:56:56;17.70;99.90
3262;DHT22;1643;47.746;9.000;2022-08-21T05:59:22;17.70;99.90
3262;DHT22;1643;47.746;9.000;2022-08-21T06:01:48;17.80;99.90
3262;DHT22;1643;47.746;9.000;2022-08-21T06:04:14;17.90;99.90
3262;DHT22;1643;47.746;9.000;2022-08-21T06:06:41;17.90;99.90
3262;DHT22;1643;47.746;9.000;2022-08-21T06:09:07;17.90;99.90
3262;DHT22;1643;47.746;9.000;2022-08-21T06:11:33;18.00;99.90
3262;DHT22;1643;47.746;9.000;2022-08-21T06:13:59;18.10;99.90
3262;DHT22;1643;47.746;9.000;2022-08-21T06:16:26;18.10;99.90
3262;DHT22;1643;47.746;9.000;2022-08-21T06:18:52;18.20;99.90
3262;DHT22;1643;47.746;9.000;2022-08-21T06:21:18;18.20;99.90
3262;DHT22;1643;47.746;9.000;2022-08-21T06:23:44;18.30;99.90
3262;DHT22;1643;47.746;9.000;2022-08-21T06:26:12;18.40;99.90
3262;DHT22;1643;47.746;9.000;2022-08-21T06:28:39;18.40;99.90
3262;DHT22;1643;47.746;9.000;2022-08-21T06:31:16;18.40;99.90
3262;DHT22;1643;47.746;9.000;2022-08-21T06:33:42;18.40;99.90
3262;DHT22;1643;47.746;9.000;2022-08-21T06:36:08;18.40;99.90
3262;DHT22;1643;47.746;9.000;2022-08-21T06:38:35;18.30;99.90
3262;DHT22;1643;47.746;9.000;2022-08-21T06:41:00;18.30;99.90
3262;DHT22;1643;47.746;9.000;2022-08-21T06:43:26;18.20;99.90
3262;DHT22;1643;47.746;9.000;2022-08-21T06:45:52;18.30;99.90
3262;DHT22;1643;47.746;9.000;2022-08-21T06:48:17;18.30;99.90
3262;DHT22;1643;47.746;9.000;2022-08-21T06:50:43;18.20;99.90
3262;DHT22;1643;47.746;9.000;2022-08-21T06:53:11;18.20;99.90
3262;DHT22;1643;47.746;9.000;2022-08-21T06:55:38;18.20;99.90
3262;DHT22;1643;47.746;9.000;2022-08-21T06:58:04;18.20;99.90
3262;DHT22;1643;47.746;9.000;2022-08-21T07:00:31;18.20;99.90
3262;DHT22;1643;47.746;9.000;2022-08-21T07:02:58;18.30;99.90
3262;DHT22;1643;47.746;9.000;2022-08-21T07:05:30;18.30;99.90
3262;DHT22;1643;47.746;9.000;2022-08-21T07:07:56;18.30;99.90
3262;DHT22;1643;47.746;9.000;2022-08-21T07:10:26;18.30;99.90
3262;DHT22;1643;47.746;9.000;2022-08-21T07:12:52;18.30;99.90
3262;DHT22;1643;47.746;9.000;2022-08-21T07:15:19;18.20;99.90
3262;DHT22;1643;47.746;9.000;2022-08-21T07:17:45;18.10;99.90
3262;DHT22;1643;47.746;9.000;2022-08-21T07:20:11;18.10;99.90
3262;DHT22;1643;47.746;9.000;2022-08-21T07:22:38;18.10;99.90
3262;DHT22;1643;47.746;9.000;2022-08-21T07:25:05;18.10;99.90
3262;DHT22;1643;47.746;9.000;2022-08-21T07:27:31;18.10;99.90
3262;DHT22;1643;47.746;9.000;2022-08-21T07:29:57;18.20;99.90
3262;DHT22;1643;47.746;9.000;2022-08-21T07:32:23;18.20;99.90
3262;DHT22;1643;47.746;9.000;2022-08-21T07:34:49;18.10;99.90
3262;DHT22;1643;47.746;9.000;2022-08-21T07:37:14;18.10;99.90
3262;DHT22;1643;47.746;9.000;2022-08-21T07:39:40;18.10;99.90
3262;DHT22;1643;47.746;9.000;2022-08-21T07:42:06;18.20;99.90
3262;DHT22;1643;47.746;9.000;2022-08-21T07:44:32;18.30;99.90
3262;DHT22;1643;47.746;9.000;2022-08-21T07:47:00;18.30;99.90
3262;DHT22;1643;47.746;9.000;2022-08-21T07:49:26;18.30;99.90
3262;DHT22;1643;47.746;9.000;2022-08-21T07:51:52;18.40;99.90
3262;DHT22;1643;47.746;9.000;2022-08-21T07:54:18;18.60;99.90
3262;DHT22;1643;47.746;9.000;2022-08-21T07:56:44;18.70;99.90
3262;DHT22;1643;47.746;9.000;2022-08-21T07:59:10;18.80;99.90
3262;DHT22;1643;47.746;9.000;2022-08-21T08:01:35;19.00;99.90
3262;DHT22;1643;47.746;9.000;2022-08-21T08:04:01;19.10;99.90
3262;DHT22;1643;47.746;9.000;2022-08-21T08:06:27;19.10;99.90
3262;DHT22;1643;47.746;9.000;2022-08-21T08:08:52;19.20;99.90
3262;DHT22;1643;47.746;9.000;2022-08-21T08:11:18;19.40;99.90
3262;DHT22;1643;47.746;9.000;2022-08-21T08:13:49;19.60;99.90
3262;DHT22;1643;47.746;9.000;2022-08-21T08:16:15;19.70;99.90
3262;DHT22;1643;47.746;9.000;2022-08-21T08:18:41;19.80;99.90
3262;DHT22;1643;47.746;9.000;2022-08-21T08:21:09;19.80;99.90
3262;DHT22;1643;47.746;9.000;2022-08-21T08:23:35;19.80;99.90
3262;DHT22;1643;47.746;9.000;2022-08-21T08:26:01;19.80;99.90
3262;DHT22;1643;47.746;9.000;2022-08-21T08:28:32;19.90;99.90
3262;DHT22;1643;47.746;9.000;2022-08-21T08:30:59;20.10;99.90
3262;DHT22;1643;47.746;9.000;2022-08-21T08:33:26;20.10;99.90
3262;DHT22;1643;47.746;9.000;2022-08-21T08:35:53;20.20;99.90
3262;DHT22;1643;47.746;9.000;2022-08-21T08:38:20;20.20;99.90
3262;DHT22;1643;47.746;9.000;2022-08-21T08:43:21;20.40;99.90
3262;DHT22;1643;47.746;9.000;2022-08-21T08:45:50;20.40;99.90
3262;DHT22;1643;47.746;9.000;2022-08-21T08:48:39;20.40;99.90
3262;DHT22;1643;47.746;9.000;2022-08-21T08:51:11;20.30;99.90
3262;DHT22;1643;47.746;9.000;2022-08-21T08:53:55;20.40;99.90
3262;DHT22;1643;47.746;9.000;2022-08-21T08:56:28;20.40;99.90
3262;DHT22;1643;47.746;9.000;2022-08-21T08:58:56;20.40;99.90
3262;DHT22;1643;47.746;9.000;2022-08-21T09:01:24;20.40;99.90
3262;DHT22;1643;47.746;9.000;2022-08-21T09:03:50;20.30;99.90
3262;DHT22;1643;47.746;9.000;2022-08-21T09:11:33;20.40;99.90
3262;DHT22;1643;47.746;9.000;2022-08-21T09:17:01;20.40;99.90
3262;DHT22;1643;47.746;9.000;2022-08-21T09:19:50;20.30;99.90
3262;DHT22;1643;47.746;9.000;2022-08-21T09:22:43;20.50;99.90
3262;DHT22;1643;47.746;9.000;2022-08-21T09:25:22;20.50;99.90
3262;DHT22;1643;47.746;9.000;2022-08-21T09:27:55;20.60;99.90
3262;DHT22;1643;47.746;9.000;2022-08-21T09:30:32;20.70;99.90
3262;DHT22;1643;47.746;9.000;2022-08-21T09:33:04;20.80;99.90
3262;DHT22;1643;47.746;9.000;2022-08-21T09:35:29;20.80;99.90
3262;DHT22;1643;47.746;9.000;2022-08-21T09:40:45;20.80;99.90
3262;DHT22;1643;47.746;9.000;2022-08-21T09:45:38;20.80;99.90
3262;DHT22;1643;47.746;9.000;2022-08-21T09:48:12;20.80;99.90
3262;DHT22;1643;47.746;9.000;2022-08-21T09:50:38;20.90;99.90
3262;DHT22;1643;47.746;9.000;2022-08-21T09:53:04;20.90;99.90
3262;DHT22;1643;47.746;9.000;2022-08-21T09:55:38;21.00;99.90
3262;DHT22;1643;47.746;9.000;2022-08-21T09:58:31;21.00;99.90
3262;DHT22;1643;47.746;9.000;2022-08-21T10:01:00;21.00;99.90
3262;DHT22;1643;47.746;9.000;2022-08-21T10:03:27;21.00;99.90
3262;DHT22;1643;47.746;9.000;2022-08-21T10:08:24;21.10;99.90
3262;DHT22;1643;47.746;9.000;2022-08-21T10:10:54;21.20;99.90
3262;DHT22;1643;47.746;9.000;2022-08-21T10:13:32;21.30;99.90
3262;DHT22;1643;47.746;9.000;2022-08-21T10:18:56;21.40;99.90
3262;DHT22;1643;47.746;9.000;2022-08-21T10:27:05;21.80;99.90
3262;DHT22;1643;47.746;9.000;2022-08-21T10:29:47;21.80;99.90
3262;DHT22;1643;47.746;9.000;2022-08-21T10:41:21;21.80;99.90
3262;DHT22;1643;47.746;9.000;2022-08-21T10:43:41;21.90;99.90
3262;DHT22;1643;47.746;9.000;2022-08-21T10:49:43;22.00;99.90
3262;DHT22;1643;47.746;9.000;2022-08-21T10:55:12;22.20;99.90
3262;DHT22;1643;47.746;9.000;2022-08-21T10:57:41;22.30;99.90
3262;DHT22;1643;47.746;9.000;2022-08-21T11:00:20;22.40;99.90
3262;DHT22;1643;47.746;9.000;2022-08-21T11:05:54;22.50;99.90
3262;DHT22;1643;47.746;9.000;2022-08-21T11:08:28;22.50;99.90
3262;DHT22;1643;47.746;9.000;2022-08-21T11:11:01;22.60;99.90
3262;DHT22;1643;47.746;9.000;2022-08-21T11:18:55;22.80;99.90
3262;DHT22;1643;47.746;9.000;2022-08-21T11:21:35;22.90;99.90
3262;DHT22;1643;47.746;9.000;2022-08-21T11:24:30;22.90;99.90
3262;DHT22;1643;47.746;9.000;2022-08-21T11:29:52;22.90;99.90
3262;DHT22;1643;47.746;9.000;2022-08-21T11:32:26;22.90;99.90
3262;DHT22;1643;47.746;9.000;2022-08-21T11:40:41;23.20;99.90
3262;DHT22;1643;47.746;9.000;2022-08-21T11:51:53;23.30;99.90
3262;DHT22;1643;47.746;9.000;2022-08-21T11:54:34;23.40;99.90
3262;DHT22;1643;47.746;9.000;2022-08-21T11:57:29;23.60;99.90
3262;DHT22;1643;47.746;9.000;2022-08-21T12:00:22;23.60;99.90
3262;DHT22;1643;47.746;9.000;2022-08-21T12:02:53;23.70;99.90
3262;DHT22;1643;47.746;9.000;2022-08-21T12:05:40;23.80;99.90
3262;DHT22;1643;47.746;9.000;2022-08-21T12:08:11;23.80;99.90
3262;DHT22;1643;47.746;9.000;2022-08-21T12:10:45;23.80;99.90
3262;DHT22;1643;47.746;9.000;2022-08-21T12:13:26;23.90;99.90
3262;DHT22;1643;47.746;9.000;2022-08-21T12:15:52;24.10;99.90
3262;DHT22;1643;47.746;9.000;2022-08-21T12:18:29;24.10;99.90
3262;DHT22;1643;47.746;9.000;2022-08-21T12:26:33;24.20;99.90
3262;DHT22;1643;47.746;9.000;2022-08-21T12:29:12;24.30;99.90
3262;DHT22;1643;47.746;9.000;2022-08-21T12:31:54;24.30;99.90
3262;DHT22;1643;47.746;9.000;2022-08-21T12:34:24;24.30;99.90
3262;DHT22;1643;47.746;9.000;2022-08-21T12:37:00;24.40;99.90
3262;DHT22;1643;47.746;9.000;2022-08-21T12:39:29;24.60;99.90
3262;DHT22;1643;47.746;9.000;2022-08-21T12:42:00;24.60;99.90
3262;DHT22;1643;47.746;9.000;2022-08-21T12:44:42;24.60;99.90
3262;DHT22;1643;47.746;9.000;2022-08-21T12:47:29;24.70;99.90
3262;DHT22;1643;47.746;9.000;2022-08-21T12:50:20;24.70;99.90
3262;DHT22;1643;47.746;9.000;2022-08-21T12:53:01;24.70;99.90
3262;DHT22;1643;47.746;9.000;2022-08-21T12:55:32;24.70;99.90
3262;DHT22;1643;47.746;9.000;2022-08-21T12:57:58;24.70;99.90
3262;DHT22;1643;47.746;9.000;2022-08-21T13:00:26;24.80;99.90
3262;DHT22;1643;47.746;9.000;2022-08-21T13:02:54;24.80;99.90
3262;DHT22;1643;47.746;9.000;2022-08-21T13:05:39;24.90;99.90
3262;DHT22;1643;47.746;9.000;2022-08-21T13:08:07;24.90;99.90
3262;DHT22;1643;47.746;9.000;2022-08-21T13:10:36;25.00;99.90
3262;DHT22;1643;47.746;9.000;2022-08-21T13:13:05;25.20;99.90
3262;DHT22;1643;47.746;9.000;2022-08-21T13:15:35;25.10;99.90
3262;DHT22;1643;47.746;9.000;2022-08-21T13:18:02;25.10;99.90
3262;DHT22;1643;47.746;9.000;2022-08-21T13:20:36;25.10;99.90
3262;DHT22;1643;47.746;9.000;2022-08-21T13:23:07;25.20;99.90
3262;DHT22;1643;47.746;9.000;2022-08-21T13:25:37;25.20;99.90
3262;DHT22;1643;47.746;9.000;2022-08-21T13:28:09;25.20;99.90
3262;DHT22;1643;47.746;9.000;2022-08-21T13:30:43;25.30;99.60
3262;DHT22;1643;47.746;9.000;2022-08-21T13:33:10;25.30;99.70
3262;DHT22;1643;47.746;9.000;2022-08-21T13:38:24;25.50;99.90
3262;DHT22;1643;47.746;9.000;2022-08-21T13:43:55;25.50;99.60
3262;DHT22;1643;47.746;9.000;2022-08-21T13:46:24;25.50;98.90
3262;DHT22;1643;47.746;9.000;2022-08-21T13:48:50;25.60;99.00
3262;DHT22;1643;47.746;9.000;2022-08-21T13:51:16;25.60;99.40
3262;DHT22;1643;47.746;9.000;2022-08-21T13:56:32;25.70;99.10
3262;DHT22;1643;47.746;9.000;2022-08-21T13:59:00;25.80;99.10
3262;DHT22;1643;47.746;9.000;2022-08-21T14:01:49;25.80;98.80
3262;DHT22;1643;47.746;9.000;2022-08-21T14:04:23;25.80;98.80
3262;DHT22;1643;47.746;9.000;2022-08-21T14:06:50;25.90;97.90
3262;DHT22;1643;47.746;9.000;2022-08-21T14:09:34;25.90;98.20
3262;DHT22;1643;47.746;9.000;2022-08-21T14:12:10;26.00;98.30
3262;DHT22;1643;47.746;9.000;2022-08-21T14:14:39;26.00;98.30
3262;DHT22;1643;47.746;9.000;2022-08-21T14:17:07;26.00;98.10
3262;DHT22;1643;47.746;9.000;2022-08-21T14:19:43;26.10;98.10
3262;DHT22;1643;47.746;9.000;2022-08-21T14:25:10;26.10;98.30
3262;DHT22;1643;47.746;9.000;2022-08-21T14:27:41;26.10;98.20
3262;DHT22;1643;47.746;9.000;2022-08-21T14:30:18;26.20;98.10
3262;DHT22;1643;47.746;9.000;2022-08-21T14:32:45;26.20;97.90
3262;DHT22;1643;47.746;9.000;2022-08-21T14:35:11;26.30;97.80
3262;DHT22;1643;47.746;9.000;2022-08-21T14:37:36;26.40;97.70
3262;DHT22;1643;47.746;9.000;2022-08-21T14:40:04;26.60;97.50
3262;DHT22;1643;47.746;9.000;2022-08-21T14:42:30;26.50;97.20
3262;DHT22;1643;47.746;9.000;2022-08-21T14:45:01;26.60;97.30
3262;DHT22;1643;47.746;9.000;2022-08-21T14:47:27;26.50;97.10
3262;DHT22;1643;47.746;9.000;2022-08-21T14:49:54;26.60;96.80
3262;DHT22;1643;47.746;9.000;2022-08-21T14:52:20;26.70;96.00
3262;DHT22;1643;47.746;9.000;2022-08-21T14:54:45;26.70;96.20
3262;DHT22;1643;47.746;9.000;2022-08-21T14:57:11;26.80;96.50
3262;DHT22;1643;47.746;9.000;2022-08-21T14:59:40;26.90;96.50
3262;DHT22;1643;47.746;9.000;2022-08-21T15:02:07;26.90;96.00
3262;DHT22;1643;47.746;9.000;2022-08-21T15:04:34;26.90;95.90
3262;DHT22;1643;47.746;9.000;2022-08-21T15:06:59;27.00;95.80
3262;DHT22;1643;47.746;9.000;2022-08-21T15:09:25;27.10;95.20
3262;DHT22;1643;47.746;9.000;2022-08-21T15:11:53;27.10;94.80
3262;DHT22;1643;47.746;9.000;2022-08-21T15:14:22;27.00;94.60
3262;DHT22;1643;47.746;9.000;2022-08-21T15:16:49;26.90;94.40
3262;DHT22;1643;47.746;9.000;2022-08-21T15:19:15;26.90;94.60
3262;DHT22;1643;47.746;9.000;2022-08-21T15:21:41;27.10;94.60
3262;DHT22;1643;47.746;9.000;2022-08-21T15:24:07;27.00;94.60
3262;DHT22;1643;47.746;9.000;2022-08-21T15:26:32;27.00;94.20
3262;DHT22;1643;47.746;9.000;2022-08-21T15:28:59;26.90;94.20
3262;DHT22;1643;47.746;9.000;2022-08-21T15:31:25;26.90;94.30
3262;DHT22;1643;47.746;9.000;2022-08-21T15:33:50;26.90;94.00
3262;DHT22;1643;47.746;9.000;2022-08-21T15:36:17;27.00;94.00
3262;DHT22;1643;47.746;9.000;2022-08-21T15:38:44;27.00;94.00
3262;DHT22;1643;47.746;9.000;2022-08-21T15:41:11;27.10;93.90
3262;DHT22;1643;47.746;9.000;2022-08-21T15:43:46;27.00;94.00
3262;DHT22;1643;47.746;9.000;2022-08-21T15:46:13;27.00;94.00
3262;DHT22;1643;47.746;9.000;2022-08-21T15:48:40;27.00;93.50
3262;DHT22;1643;47.746;9.000;2022-08-21T15:51:06;27.10;93.40
3262;DHT22;1643;47.746;9.000;2022-08-21T15:53:31;27.10;93.30
3262;DHT22;1643;47.746;9.000;2022-08-21T15:56:02;27.20;93.50
3262;DHT22;1643;47.746;9.000;2022-08-21T15:58:28;27.30;93.60
3262;DHT22;1643;47.746;9.000;2022-08-21T16:00:53;27.30;92.70
3262;DHT22;1643;47.746;9.000;2022-08-21T16:03:19;27.10;92.50
3262;DHT22;1643;47.746;9.000;2022-08-21T16:05:47;27.10;92.80
3262;DHT22;1643;47.746;9.000;2022-08-21T16:08:19;27.00;92.90
3262;DHT22;1643;47.746;9.000;2022-08-21T16:10:44;27.10;93.50
3262;DHT22;1643;47.746;9.000;2022-08-21T16:13:23;27.30;93.20
3262;DHT22;1643;47.746;9.000;2022-08-21T16:15:50;27.40;92.80
3262;DHT22;1643;47.746;9.000;2022-08-21T16:18:17;27.40;92.50
3262;DHT22;1643;47.746;9.000;2022-08-21T16:20:43;27.50;92.30
3262;DHT22;1643;47.746;9.000;2022-08-21T16:23:09;27.50;92.30
3262;DHT22;1643;47.746;9.000;2022-08-21T16:25:37;27.40;92.30
3262;DHT22;1643;47.746;9.000;2022-08-21T16:28:06;27.30;92.50
3262;DHT22;1643;47.746;9.000;2022-08-21T16:30:34;27.50;93.00
3262;DHT22;1643;47.746;9.000;2022-08-21T16:33:01;27.50;92.70
3262;DHT22;1643;47.746;9.000;2022-08-21T16:35:27;27.30;92.40
3262;DHT22;1643;47.746;9.000;2022-08-21T16:37:54;27.20;92.10
3262;DHT22;1643;47.746;9.000;2022-08-21T16:40:20;27.00;91.90
3262;DHT22;1643;47.746;9.000;2022-08-21T16:42:51;26.80;92.20
3262;DHT22;1643;47.746;9.000;2022-08-21T16:45:18;26.50;91.90
3262;DHT22;1643;47.746;9.000;2022-08-21T16:47:46;26.40;92.10
3262;DHT22;1643;47.746;9.000;2022-08-21T16:50:16;26.20;92.20
3262;DHT22;1643;47.746;9.000;2022-08-21T16:52:44;26.00;91.90
3262;DHT22;1643;47.746;9.000;2022-08-21T16:55:09;25.90;92.10
3262;DHT22;1643;47.746;9.000;2022-08-21T16:57:35;25.70;92.10
3262;DHT22;1643;47.746;9.000;2022-08-21T17:00:05;25.60;92.30
3262;DHT22;1643;47.746;9.000;2022-08-21T17:02:39;25.70;92.60
3262;DHT22;1643;47.746;9.000;2022-08-21T17:05:07;25.60;92.70
3262;DHT22;1643;47.746;9.000;2022-08-21T17:07:34;25.60;92.70
3262;DHT22;1643;47.746;9.000;2022-08-21T17:09:59;25.50;92.70
3262;DHT22;1643;47.746;9.000;2022-08-21T17:12:25;25.40;92.80
3262;DHT22;1643;47.746;9.000;2022-08-21T17:14:51;25.40;93.00
3262;DHT22;1643;47.746;9.000;2022-08-21T17:17:16;25.30;93.30
3262;DHT22;1643;47.746;9.000;2022-08-21T17:19:43;25.30;93.50
3262;DHT22;1643;47.746;9.000;2022-08-21T17:22:09;25.20;93.50
3262;DHT22;1643;47.746;9.000;2022-08-21T17:24:36;25.10;93.50
3262;DHT22;1643;47.746;9.000;2022-08-21T17:27:02;25.00;93.50
3262;DHT22;1643;47.746;9.000;2022-08-21T17:29:35;25.00;93.60
3262;DHT22;1643;47.746;9.000;2022-08-21T17:32:03;25.10;93.80
3262;DHT22;1643;47.746;9.000;2022-08-21T17:34:31;25.10;93.90
3262;DHT22;1643;47.746;9.000;2022-08-21T17:36:56;25.20;94.00
3262;DHT22;1643;47.746;9.000;2022-08-21T17:39:22;25.20;94.10